Archival Weather

Republic

Farmingdale, New York (KFRG)

Report from: Monday, February 19, 2024 10:53 AM EST
Current time: Friday, June 14, 2024 8:53 AM EDT

Current weather – Weather history – Daily summaries
Weather forecast

Temperature3.3°C (37.9°F)
Wind chill0.0°C (32.1°F)
Dew point-8.3°C (17.1°F)
Winds 7 kts (3.6 m/s, 8.1 mph) North-Northwest (330°)
Visibility10 mi. (16.1 km)
Clouds Sky clear
Altimeter30.15 in.Hg (1021 mB)
Relative humidity42 %
Density altitude-1,630 ft. (-497 m)
Sea-level pressure102.1 kPa (1021 mB, 30.15 in.Hg)
Remarks Automated weather observing station without precipitation discriminator
Flight conditions Visual Meteorological Conditions
Raw dataKFRG 191553Z 33007KT 10SM CLR 03/M08 A3015 RMK AO1 SLP211 T00331083
An error has occurred. This application may no longer respond until reloaded. Reload 🗙